Time,TemperatureF,DewpointF,PressureIn,WindDirection,WindDirectionDegrees,WindSpeedMPH,WindSpeedGustMPH,Humidity,HourlyPrecipIn,Conditions,Clouds,dailyrainin,SoftwareType,DateUTC
2016-12-03 00:04:00,61.7,47.7,30.18,NE,42,2.0,4.0,60,0.00,,,0.00,Wunderground v.1.15,2016-12-03 05:04:00,
2016-12-03 00:09:00,61.6,47.1,30.17,North,11,3.0,5.0,59,0.00,,,0.00,Wunderground v.1.15,2016-12-03 05:09:00,
2016-12-03 00:14:00,61.5,47.0,30.18,ENE,76,0.0,2.0,59,0.00,,,0.00,Wunderground v.1.15,2016-12-03 05:14:00,
2016-12-03 00:19:00,61.4,46.9,30.17,NNW,338,1.0,9.0,59,0.00,,,0.00,Wunderground v.1.15,2016-12-03 05:19:00,
2016-12-03 00:25:00,61.5,47.5,30.17,NE,56,2.0,4.0,60,0.00,,,0.00,Wunderground v.1.15,2016-12-03 05:25:00,
2016-12-03 00:31:00,61.4,47.8,30.17,NE,37,1.0,6.0,61,0.00,,,0.00,Wunderground v.1.15,2016-12-03 05:31:00,
2016-12-03 00:36:00,61.3,48.2,30.18,NNE,22,3.0,3.0,62,0.00,,,0.00,Wunderground v.1.15,2016-12-03 05:36:00,
2016-12-03 00:42:00,61.2,47.6,30.18,NE,43,0.0,3.0,61,0.00,,,0.00,Wunderground v.1.15,2016-12-03 05:42:00,
2016-12-03 00:48:00,61.0,47.9,30.17,NE,42,1.0,6.0,62,0.00,,,0.00,Wunderground v.1.15,2016-12-03 05:48:00,
2016-12-03 00:53:00,60.8,47.7,30.17,NE,45,0.0,6.0,62,0.00,,,0.00,Wunderground v.1.15,2016-12-03 05:53:00,
2016-12-03 00:59:00,60.7,47.6,30.17,NNE,26,6.0,6.0,62,0.00,,,0.00,Wunderground v.1.15,2016-12-03 05:59:00,
2016-12-03 01:05:00,60.5,47.0,30.17,NE,44,2.0,3.0,61,0.00,,,0.00,Wunderground v.1.15,2016-12-03 06:05:00,
2016-12-03 01:11:00,60.5,47.0,30.17,NNE,33,2.0,3.0,61,0.00,,,0.00,Wunderground v.1.15,2016-12-03 06:11:00,
2016-12-03 01:17:00,60.4,46.4,30.17,NNW,344,3.0,5.0,60,0.00,,,0.00,Wunderground v.1.15,2016-12-03 06:17:00,
2016-12-03 01:22:00,60.4,46.4,30.17,ENE,59,2.0,5.0,60,0.00,,,0.00,Wunderground v.1.15,2016-12-03 06:22:00,
2016-12-03 01:28:00,60.3,46.8,30.17,NNE,16,2.0,2.0,61,0.00,,,0.00,Wunderground v.1.15,2016-12-03 06:28:00,
2016-12-03 01:34:00,60.2,46.7,30.17,North,352,2.0,4.0,61,0.00,,,0.00,Wunderground v.1.15,2016-12-03 06:34:00,
2016-12-03 01:40:00,60.1,46.6,30.17,NE,43,0.0,2.0,61,0.00,,,0.00,Wunderground v.1.15,2016-12-03 06:40:00,
2016-12-03 01:46:00,59.9,46.8,30.17,ENE,65,0.0,1.0,62,0.00,,,0.00,Wunderground v.1.15,2016-12-03 06:46:00,
2016-12-03 01:52:00,59.7,47.1,30.17,NE,47,0.0,2.0,63,0.00,,,0.00,Wunderground v.1.15,2016-12-03 06:52:00,
2016-12-03 01:58:00,59.7,47.1,30.17,NE,50,0.0,2.0,63,0.00,,,0.00,Wunderground v.1.15,2016-12-03 06:58:00,
2016-12-03 02:04:00,59.7,47.1,30.17,NE,51,0.0,2.0,63,0.00,,,0.00,Wunderground v.1.15,2016-12-03 07:04:00,
2016-12-03 02:10:00,59.7,47.1,30.17,NE,39,2.0,2.0,63,0.00,,,0.00,Wunderground v.1.15,2016-12-03 07:10:00,
2016-12-03 02:15:00,59.7,47.1,30.17,ENE,62,2.0,2.0,63,0.00,,,0.00,Wunderground v.1.15,2016-12-03 07:15:00,
2016-12-03 02:18:00,59.3,47.5,30.16,NE,46,1.0,4.0,65,0.00,,,0.00,Wunderground v.1.15,2016-12-03 07:18:00,
2016-12-03 02:19:00,59.3,47.5,30.16,NNE,33,1.0,4.0,65,0.00,,,0.00,Wunderground v.1.15,2016-12-03 07:19:00,
2016-12-03 02:20:00,59.3,47.5,30.16,NNE,28,1.0,2.0,65,0.00,,,0.00,Wunderground v.1.15,2016-12-03 07:20:00,
2016-12-03 02:21:00,59.7,47.5,30.17,NE,43,1.0,2.0,64,0.00,,,0.00,Wunderground v.1.15,2016-12-03 07:21:00,
2016-12-03 02:22:00,59.3,47.1,30.17,NNE,20,2.0,4.0,64,0.00,,,0.00,Wunderground v.1.15,2016-12-03 07:22:00,
2016-12-03 02:23:00,59.3,47.1,30.17,North,5,2.0,4.0,64,0.00,,,0.00,Wunderground v.1.15,2016-12-03 07:23:00,
2016-12-03 02:24:00,59.3,47.1,30.17,NE,50,1.0,4.0,64,0.00,,,0.00,Wunderground v.1.15,2016-12-03 07:24:00,
2016-12-03 02:25:00,59.3,47.1,30.16,NE,40,2.0,4.0,64,0.00,,,0.00,Wunderground v.1.15,2016-12-03 07:25:00,
2016-12-03 02:26:00,59.7,47.5,30.17,NNE,22,1.0,2.0,64,0.00,,,0.00,Wunderground v.1.15,2016-12-03 07:26:00,
2016-12-03 02:27:00,59.2,47.0,30.16,NE,35,0.0,4.0,64,0.00,,,0.00,Wunderground v.1.15,2016-12-03 07:27:00,
2016-12-03 02:28:00,59.2,47.0,30.16,North,352,1.0,4.0,64,0.00,,,0.00,Wunderground v.1.15,2016-12-03 07:28:00,
2016-12-03 02:29:00,59.2,47.0,30.16,NNE,27,2.0,4.0,64,0.00,,,0.00,Wunderground v.1.15,2016-12-03 07:29:00,
2016-12-03 02:31:00,59.7,47.5,30.17,NE,41,2.0,2.0,64,0.00,,,0.00,Wunderground v.1.15,2016-12-03 07:31:00,
2016-12-03 02:36:00,59.6,47.8,30.17,NNE,19,1.0,3.0,65,0.00,,,0.00,Wunderground v.1.15,2016-12-03 07:36:00,
2016-12-03 02:41:00,59.4,47.6,30.16,NE,54,1.0,3.0,65,0.00,,,0.00,Wunderground v.1.15,2016-12-03 07:41:00,
2016-12-03 02:46:00,59.2,47.0,30.17,NNW,341,2.0,4.0,64,0.00,,,0.00,Wunderground v.1.15,2016-12-03 07:46:00,
2016-12-03 02:54:00,59.8,46.3,30.16,NNE,23,2.0,7.0,61,0.00,,,0.00,Wunderground v.1.15,2016-12-03 07:54:00,
2016-12-03 02:55:00,59.8,46.3,30.17,NE,44,5.0,7.0,61,0.00,,,0.00,Wunderground v.1.15,2016-12-03 07:55:00,
2016-12-03 02:56:00,59.2,46.6,30.16,NNE,27,0.0,4.0,63,0.00,,,0.00,Wunderground v.1.15,2016-12-03 07:56:00,
2016-12-03 02:57:00,59.8,46.3,30.16,NE,49,1.0,7.0,61,0.00,,,0.00,Wunderground v.1.15,2016-12-03 07:57:00,
2016-12-03 02:58:00,59.8,46.3,30.16,NNE,12,3.0,7.0,61,0.00,,,0.00,Wunderground v.1.15,2016-12-03 07:58:00,
2016-12-03 02:59:00,59.8,46.3,30.16,NE,37,2.0,7.0,61,0.00,,,0.00,Wunderground v.1.15,2016-12-03 07:59:00,
2016-12-03 03:00:00,59.8,46.3,30.16,NE,44,2.0,2.0,61,0.00,,,0.00,Wunderground v.1.15,2016-12-03 08:00:00,
2016-12-03 03:01:00,59.3,46.3,30.17,ENE,61,2.0,8.0,62,0.00,,,0.00,Wunderground v.1.15,2016-12-03 08:01:00,
2016-12-03 03:06:00,59.5,46.5,30.17,NE,53,2.0,7.0,62,0.00,,,0.00,Wunderground v.1.15,2016-12-03 08:06:00,
2016-12-03 03:11:00,59.7,46.2,30.17,ENE,70,6.0,11.0,61,0.00,,,0.00,Wunderground v.1.15,2016-12-03 08:11:00,
2016-12-03 03:16:00,59.7,46.2,30.17,East,98,3.0,7.0,61,0.00,,,0.00,Wunderground v.1.15,2016-12-03 08:16:00,
2016-12-03 03:21:00,59.8,46.3,30.16,NE,51,0.0,7.0,61,0.00,,,0.00,Wunderground v.1.15,2016-12-03 08:21:00,
2016-12-03 03:26:00,59.8,46.3,30.16,North,8,3.0,5.0,61,0.00,,,0.00,Wunderground v.1.15,2016-12-03 08:26:00,
2016-12-03 03:31:00,59.8,46.7,30.17,East,100,1.0,6.0,62,0.00,,,0.00,Wunderground v.1.15,2016-12-03 08:31:00,
2016-12-03 03:35:00,59.3,47.1,30.16,NE,35,1.0,5.0,64,0.00,,,0.00,Wunderground v.1.15,2016-12-03 08:35:00,
2016-12-03 03:36:00,59.8,46.7,30.16,North,11,2.0,2.0,62,0.00,,,0.00,Wunderground v.1.15,2016-12-03 08:36:00,
2016-12-03 03:37:00,59.2,47.0,30.16,NE,44,2.0,5.0,64,0.00,,,0.00,Wunderground v.1.15,2016-12-03 08:37:00,
2016-12-03 03:38:00,59.2,47.0,30.16,ENE,65,0.0,5.0,64,0.00,,,0.00,Wunderground v.1.15,2016-12-03 08:38:00,
2016-12-03 03:39:00,59.2,47.0,30.16,NE,54,0.0,5.0,64,0.00,,,0.00,Wunderground v.1.15,2016-12-03 08:39:00,
2016-12-03 03:40:00,59.2,47.0,30.16,NE,54,0.0,1.0,64,0.00,,,0.00,Wunderground v.1.15,2016-12-03 08:40:00,
2016-12-03 03:41:00,59.6,47.0,30.16,ENE,65,3.0,9.0,63,0.00,,,0.00,Wunderground v.1.15,2016-12-03 08:41:00,
2016-12-03 03:42:00,59.1,47.3,30.16,ENE,75,2.0,4.0,65,0.00,,,0.00,Wunderground v.1.15,2016-12-03 08:42:00,
2016-12-03 03:43:00,59.1,47.3,30.16,NE,35,2.0,4.0,65,0.00,,,0.00,Wunderground v.1.15,2016-12-03 08:43:00,
2016-12-03 03:46:00,59.6,46.6,30.16,North,354,2.0,4.0,62,0.00,,,0.00,Wunderground v.1.15,2016-12-03 08:46:00,
2016-12-03 03:51:00,59.5,46.5,30.16,NE,36,3.0,5.0,62,0.00,,,0.00,Wunderground v.1.15,2016-12-03 08:51:00,
2016-12-03 03:56:00,59.4,46.8,30.17,ENE,67,0.0,2.0,63,0.00,,,0.00,Wunderground v.1.15,2016-12-03 08:56:00,
2016-12-03 04:01:00,59.2,47.0,30.16,NE,40,3.0,5.0,64,0.00,,,0.00,Wunderground v.1.15,2016-12-03 09:01:00,
2016-12-03 04:06:00,59.1,47.3,30.16,NNE,27,0.0,4.0,65,0.00,,,0.00,Wunderground v.1.15,2016-12-03 09:06:00,
2016-12-03 04:11:00,59.1,47.3,30.16,NE,53,1.0,5.0,65,0.00,,,0.00,Wunderground v.1.15,2016-12-03 09:11:00,
2016-12-03 04:16:00,59.0,47.2,30.16,East,86,1.0,6.0,65,0.00,,,0.00,Wunderground v.1.15,2016-12-03 09:16:00,
2016-12-03 04:20:00,59.3,48.7,30.16,NE,49,2.0,5.0,68,0.00,,,0.00,Wunderground v.1.15,2016-12-03 09:20:00,
2016-12-03 04:21:00,59.1,47.7,30.16,ENE,73,3.0,6.0,66,0.00,,,0.00,Wunderground v.1.15,2016-12-03 09:21:00,
2016-12-03 04:22:00,59.3,49.1,30.16,ENE,66,0.0,5.0,69,0.00,,,0.00,Wunderground v.1.15,2016-12-03 09:22:00,
2016-12-03 04:23:00,59.3,49.1,30.16,NE,49,0.0,5.0,69,0.00,,,0.00,Wunderground v.1.15,2016-12-03 09:23:00,
2016-12-03 04:24:00,59.3,49.1,30.16,ENE,63,4.0,5.0,69,0.00,,,0.00,Wunderground v.1.15,2016-12-03 09:24:00,
2016-12-03 04:25:00,59.3,49.1,30.16,NE,40,1.0,5.0,69,0.00,,,0.00,Wunderground v.1.15,2016-12-03 09:25:00,
2016-12-03 04:26:00,59.0,48.1,30.16,ENE,68,3.0,5.0,67,0.00,,,0.00,Wunderground v.1.15,2016-12-03 09:26:00,
2016-12-03 04:27:00,59.3,49.1,30.16,NE,52,1.0,8.0,69,0.00,,,0.00,Wunderground v.1.15,2016-12-03 09:27:00,
2016-12-03 04:28:00,59.3,49.1,30.16,East,79,1.0,8.0,69,0.00,,,0.00,Wunderground v.1.15,2016-12-03 09:28:00,
2016-12-03 04:29:00,59.3,49.1,30.16,ENE,63,1.0,8.0,69,0.00,,,0.00,Wunderground v.1.15,2016-12-03 09:29:00,
2016-12-03 04:31:00,59.1,48.1,30.16,NE,35,1.0,5.0,67,0.00,,,0.00,Wunderground v.1.15,2016-12-03 09:31:00,
2016-12-03 04:36:00,59.2,48.2,30.16,ESE,116,1.0,4.0,67,0.00,,,0.00,Wunderground v.1.15,2016-12-03 09:36:00,
2016-12-03 04:41:00,59.3,48.7,30.16,NE,43,1.0,6.0,68,0.00,,,0.00,Wunderground v.1.15,2016-12-03 09:41:00,
2016-12-03 04:46:00,59.3,49.1,30.16,ENE,65,1.0,5.0,69,0.00,,,0.00,Wunderground v.1.15,2016-12-03 09:46:00,
2016-12-03 04:51:00,59.3,49.1,30.16,ENE,73,1.0,8.0,69,0.00,,,0.00,Wunderground v.1.15,2016-12-03 09:51:00,
2016-12-03 04:56:00,59.2,49.4,30.16,NE,54,4.0,4.0,70,0.00,,,0.00,Wunderground v.1.15,2016-12-03 09:56:00,
2016-12-03 05:01:00,59.1,49.3,30.16,East,86,2.0,6.0,70,0.00,,,0.00,Wunderground v.1.15,2016-12-03 10:01:00,
2016-12-03 05:06:00,59.1,49.7,30.16,SE,136,3.0,7.0,71,0.00,,,0.00,Wunderground v.1.15,2016-12-03 10:06:00,
2016-12-03 05:07:00,59.1,50.5,30.17,NE,56,1.0,8.0,73,0.00,,,0.00,Wunderground v.1.15,2016-12-03 10:07:00,
2016-12-03 05:08:00,59.1,50.5,30.17,NE,52,1.0,8.0,73,0.00,,,0.00,Wunderground v.1.15,2016-12-03 10:08:00,
2016-12-03 05:09:00,59.1,50.5,30.17,NE,56,1.0,8.0,73,0.00,,,0.00,Wunderground v.1.15,2016-12-03 10:09:00,
2016-12-03 05:10:00,59.1,50.5,30.17,NNE,32,3.0,3.0,73,0.00,,,0.00,Wunderground v.1.15,2016-12-03 10:10:00,
2016-12-03 05:11:00,59.1,49.7,30.16,NNE,22,1.0,7.0,71,0.00,,,0.00,Wunderground v.1.15,2016-12-03 10:11:00,
2016-12-03 05:12:00,59.1,50.5,30.17,NNE,12,1.0,4.0,73,0.00,,,0.00,Wunderground v.1.15,2016-12-03 10:12:00,
2016-12-03 05:13:00,59.1,50.5,30.17,NNE,33,0.0,4.0,73,0.00,,,0.00,Wunderground v.1.15,2016-12-03 10:13:00,
2016-12-03 05:16:00,59.1,49.7,30.16,NNE,21,1.0,5.0,71,0.00,,,0.00,Wunderground v.1.15,2016-12-03 10:16:00,
2016-12-03 05:21:00,59.0,50.0,30.16,NNE,29,3.0,5.0,72,0.00,,,0.00,Wunderground v.1.15,2016-12-03 10:21:00,
2016-12-03 05:31:00,59.1,50.5,30.17,NNE,27,4.0,8.0,73,0.00,,,0.00,Wunderground v.1.15,2016-12-03 10:31:00,
2016-12-03 05:36:00,59.1,50.5,30.17,NE,42,3.0,4.0,73,0.00,,,0.00,Wunderground v.1.15,2016-12-03 10:36:00,
2016-12-03 05:41:00,59.0,50.4,30.17,NNE,25,1.0,6.0,73,0.00,,,0.00,Wunderground v.1.15,2016-12-03 10:41:00,
2016-12-03 05:42:00,59.0,51.1,30.17,NE,56,2.0,5.0,75,0.00,,,0.00,Wunderground v.1.15,2016-12-03 10:42:00,
2016-12-03 05:43:00,59.0,51.1,30.17,NE,56,0.0,5.0,75,0.00,,,0.00,Wunderground v.1.15,2016-12-03 10:43:00,
2016-12-03 05:44:00,59.0,51.1,30.17,ENE,78,4.0,5.0,75,0.00,,,0.00,Wunderground v.1.15,2016-12-03 10:44:00,
2016-12-03 05:45:00,59.0,51.1,30.17,NE,43,2.0,7.0,75,0.00,,,0.00,Wunderground v.1.15,2016-12-03 10:45:00,
2016-12-03 05:46:00,59.1,50.8,30.16,East,85,1.0,7.0,74,0.00,,,0.00,Wunderground v.1.15,2016-12-03 10:46:00,
2016-12-03 05:47:00,59.0,51.1,30.17,NE,35,2.0,7.0,75,0.00,,,0.00,Wunderground v.1.15,2016-12-03 10:47:00,
2016-12-03 05:51:00,59.0,50.7,30.17,North,8,1.0,7.0,74,0.00,,,0.00,Wunderground v.1.15,2016-12-03 10:51:00,
2016-12-03 05:56:00,59.0,50.7,30.17,ENE,59,1.0,6.0,74,0.00,,,0.00,Wunderground v.1.15,2016-12-03 10:56:00,
2016-12-03 06:01:00,59.0,50.7,30.17,ENE,63,0.0,6.0,74,0.00,,,0.00,Wunderground v.1.15,2016-12-03 11:01:00,
2016-12-03 06:07:00,59.0,51.1,30.17,NE,56,2.0,5.0,75,0.00,,,0.00,Wunderground v.1.15,2016-12-03 11:07:00,
2016-12-03 06:12:00,59.0,51.1,30.17,NNE,26,1.0,7.0,75,0.00,,,0.00,Wunderground v.1.15,2016-12-03 11:12:00,
2016-12-03 06:16:00,58.9,51.0,30.17,North,357,1.0,3.0,75,0.00,,,0.00,Wunderground v.1.15,2016-12-03 11:16:00,
2016-12-03 06:21:00,58.8,51.2,30.17,East,79,0.0,7.0,76,0.00,,,0.00,Wunderground v.1.15,2016-12-03 11:21:00,
2016-12-03 06:26:00,58.9,51.3,30.17,NNE,26,0.0,6.0,76,0.00,,,0.00,Wunderground v.1.15,2016-12-03 11:26:00,
2016-12-03 06:31:00,58.9,51.7,30.18,NNW,345,1.0,6.0,77,0.00,,,0.00,Wunderground v.1.15,2016-12-03 11:31:00,
2016-12-03 06:36:00,58.9,51.7,30.18,ENE,69,4.0,4.0,77,0.00,,,0.00,Wunderground v.1.15,2016-12-03 11:36:00,
2016-12-03 06:41:00,58.8,51.6,30.17,ENE,74,1.0,4.0,77,0.00,,,0.00,Wunderground v.1.15,2016-12-03 11:41:00,
2016-12-03 06:42:00,58.9,52.1,30.18,NNE,13,3.0,3.0,78,0.00,,,0.00,Wunderground v.1.15,2016-12-03 11:42:00,
2016-12-03 06:43:00,58.8,52.0,30.18,NNE,33,1.0,3.0,78,0.00,,,0.00,Wunderground v.1.15,2016-12-03 11:43:00,
2016-12-03 06:44:00,58.8,52.0,30.18,ENE,75,0.0,3.0,78,0.00,,,0.00,Wunderground v.1.15,2016-12-03 11:44:00,
2016-12-03 06:45:00,58.8,52.0,30.18,ENE,75,2.0,3.0,78,0.00,,,0.00,Wunderground v.1.15,2016-12-03 11:45:00,
2016-12-03 06:46:00,58.8,52.0,30.18,ENE,72,0.0,3.0,78,0.00,,,0.00,Wunderground v.1.15,2016-12-03 11:46:00,
2016-12-03 06:47:00,58.8,52.0,30.18,ENE,65,0.0,3.0,78,0.00,,,0.00,Wunderground v.1.15,2016-12-03 11:47:00,
2016-12-03 06:48:00,58.8,52.3,30.18,ENE,64,2.0,3.0,79,0.00,,,0.00,Wunderground v.1.15,2016-12-03 11:48:00,
2016-12-03 06:49:00,58.8,52.3,30.18,NNE,33,2.0,3.0,79,0.00,,,0.00,Wunderground v.1.15,2016-12-03 11:49:00,
2016-12-03 06:50:00,58.8,52.3,30.18,ENE,72,2.0,2.0,79,0.00,,,0.00,Wunderground v.1.15,2016-12-03 11:50:00,
2016-12-03 06:51:00,58.8,52.0,30.17,East,83,0.0,3.0,78,0.00,,,0.00,Wunderground v.1.15,2016-12-03 11:51:00,
2016-12-03 06:52:00,58.8,52.3,30.18,NNE,25,1.0,7.0,79,0.00,,,0.00,Wunderground v.1.15,2016-12-03 11:52:00,
2016-12-03 06:53:00,58.8,52.3,30.18,NNE,30,3.0,7.0,79,0.00,,,0.00,Wunderground v.1.15,2016-12-03 11:53:00,
2016-12-03 06:54:00,58.8,52.3,30.18,NE,41,1.0,7.0,79,0.00,,,0.00,Wunderground v.1.15,2016-12-03 11:54:00,
2016-12-03 06:56:00,58.9,52.1,30.18,NE,39,2.0,3.0,78,0.00,,,0.00,Wunderground v.1.15,2016-12-03 11:56:00,
2016-12-03 07:01:00,58.9,52.1,30.18,NNE,32,2.0,5.0,78,0.00,,,0.00,Wunderground v.1.15,2016-12-03 12:01:00,
2016-12-03 07:06:00,58.9,52.1,30.18,NE,40,0.0,3.0,78,0.00,,,0.00,Wunderground v.1.15,2016-12-03 12:06:00,
2016-12-03 07:11:00,58.8,52.3,30.18,NE,36,0.0,3.0,79,0.00,,,0.00,Wunderground v.1.15,2016-12-03 12:11:00,
2016-12-03 07:16:00,58.8,52.3,30.18,East,92,0.0,7.0,79,0.00,,,0.00,Wunderground v.1.15,2016-12-03 12:16:00,
2016-12-03 07:21:00,58.9,52.4,30.18,NE,41,1.0,7.0,79,0.00,,,0.00,Wunderground v.1.15,2016-12-03 12:21:00,
2016-12-03 07:26:00,58.7,52.2,30.18,NNE,30,0.0,3.0,79,0.00,,,0.00,Wunderground v.1.15,2016-12-03 12:26:00,
2016-12-03 07:28:00,58.8,52.6,30.19,NNE,32,1.0,6.0,80,0.00,,,0.00,Wunderground v.1.15,2016-12-03 12:28:00,
2016-12-03 07:29:00,58.8,52.6,30.19,NNE,12,2.0,6.0,80,0.00,,,0.00,Wunderground v.1.15,2016-12-03 12:29:00,
2016-12-03 07:30:00,58.8,52.6,30.19,North,4,5.0,5.0,80,0.00,,,0.00,Wunderground v.1.15,2016-12-03 12:30:00,
2016-12-03 07:31:00,58.5,52.4,30.19,NE,39,0.0,5.0,80,0.00,,,0.00,Wunderground v.1.15,2016-12-03 12:31:00,
2016-12-03 07:32:00,58.9,52.7,30.19,NNE,18,2.0,5.0,80,0.00,,,0.00,Wunderground v.1.15,2016-12-03 12:32:00,
2016-12-03 07:33:00,58.9,52.7,30.19,NE,51,0.0,5.0,80,0.00,,,0.00,Wunderground v.1.15,2016-12-03 12:33:00,
2016-12-03 07:34:00,58.9,52.7,30.19,NE,39,0.0,5.0,80,0.00,,,0.00,Wunderground v.1.15,2016-12-03 12:34:00,
2016-12-03 07:35:00,59.0,52.8,30.19,NE,36,2.0,5.0,80,0.00,,,0.00,Wunderground v.1.15,2016-12-03 12:35:00,
2016-12-03 07:36:00,58.5,52.4,30.18,NE,56,1.0,5.0,80,0.00,,,0.00,Wunderground v.1.15,2016-12-03 12:36:00,
2016-12-03 07:41:00,58.6,52.4,30.18,NE,44,0.0,5.0,80,0.00,,,0.00,Wunderground v.1.15,2016-12-03 12:41:00,
2016-12-03 07:46:00,58.6,52.4,30.19,North,8,1.0,4.0,80,0.00,,,0.00,Wunderground v.1.15,2016-12-03 12:46:00,
2016-12-03 07:51:00,58.7,52.5,30.19,NNE,28,1.0,6.0,80,0.00,,,0.00,Wunderground v.1.15,2016-12-03 12:51:00,
2016-12-03 07:57:00,58.9,52.7,30.19,NE,46,4.0,5.0,80,0.00,,,0.00,Wunderground v.1.15,2016-12-03 12:57:00,
2016-12-03 08:02:00,59.1,52.9,30.19,NE,56,3.0,6.0,80,0.00,,,0.00,Wunderground v.1.15,2016-12-03 13:02:00,
2016-12-03 08:07:00,59.3,52.8,30.19,NNE,19,6.0,6.0,79,0.00,,,0.00,Wunderground v.1.15,2016-12-03 13:07:00,
2016-12-03 08:12:00,59.5,53.0,30.19,North,6,3.0,6.0,79,0.00,,,0.00,Wunderground v.1.15,2016-12-03 13:12:00,
2016-12-03 08:17:00,59.7,53.2,30.19,NNW,330,2.0,3.0,79,0.00,,,0.00,Wunderground v.1.15,2016-12-03 13:17:00,
2016-12-03 08:22:00,59.8,53.3,30.19,NE,37,6.0,7.0,79,0.00,,,0.00,Wunderground v.1.15,2016-12-03 13:22:00,
2016-12-03 08:27:00,60.0,53.1,30.19,NNE,33,1.0,4.0,78,0.00,,,0.00,Wunderground v.1.15,2016-12-03 13:27:00,
2016-12-03 08:28:00,61.5,54.2,30.19,NNE,33,1.0,6.0,77,0.00,,,0.00,Wunderground v.1.15,2016-12-03 13:28:00,
2016-12-03 08:29:00,61.6,54.3,30.19,East,90,0.0,6.0,77,0.00,,,0.00,Wunderground v.1.15,2016-12-03 13:29:00,
2016-12-03 08:30:00,61.7,54.4,30.19,SE,135,0.0,1.0,77,0.00,,,0.00,Wunderground v.1.15,2016-12-03 13:30:00,
2016-12-03 08:31:00,62.0,54.7,30.19,ENE,70,0.0,2.0,77,0.00,,,0.00,Wunderground v.1.15,2016-12-03 13:31:00,
2016-12-03 08:32:00,60.3,53.4,30.19,NE,36,0.0,5.0,78,0.00,,,0.00,Wunderground v.1.15,2016-12-03 13:32:00,
2016-12-03 08:37:00,60.6,53.7,30.19,North,349,2.0,5.0,78,0.00,,,0.00,Wunderground v.1.15,2016-12-03 13:37:00,
2016-12-03 08:42:00,60.8,53.9,30.19,NE,52,1.0,8.0,78,0.00,,,0.00,Wunderground v.1.15,2016-12-03 13:42:00,
2016-12-03 08:47:00,61.1,53.8,30.19,North,5,3.0,6.0,77,0.00,,,0.00,Wunderground v.1.15,2016-12-03 13:47:00,
2016-12-03 08:52:00,61.5,54.2,30.19,ENE,69,0.0,6.0,77,0.00,,,0.00,Wunderground v.1.15,2016-12-03 13:52:00,
2016-12-03 08:57:00,62.0,54.7,30.19,NE,56,0.0,5.0,77,0.00,,,0.00,Wunderground v.1.15,2016-12-03 13:57:00,
2016-12-03 09:02:00,62.5,55.2,30.19,ENE,68,3.0,5.0,77,0.00,,,0.00,Wunderground v.1.15,2016-12-03 14:02:00,
2016-12-03 09:07:00,63.0,54.9,30.19,NE,49,0.0,6.0,75,0.00,,,0.00,Wunderground v.1.15,2016-12-03 14:07:00,
2016-12-03 09:12:00,63.2,55.1,30.19,ESE,113,2.0,8.0,75,0.00,,,0.00,Wunderground v.1.15,2016-12-03 14:12:00,
2016-12-03 09:17:00,63.6,55.5,30.19,NNE,18,2.0,6.0,75,0.00,,,0.00,Wunderground v.1.15,2016-12-03 14:17:00,
2016-12-03 09:21:00,63.9,55.4,30.19,ENE,73,2.0,6.0,74,0.00,,,0.00,Wunderground v.1.15,2016-12-03 14:21:00,
2016-12-03 09:26:00,64.2,55.4,30.19,ENE,77,0.0,3.0,73,0.00,,,0.00,Wunderground v.1.15,2016-12-03 14:26:00,
2016-12-03 09:31:00,64.1,55.6,30.19,ENE,58,1.0,7.0,74,0.00,,,0.00,Wunderground v.1.15,2016-12-03 14:31:00,
2016-12-03 09:36:00,64.4,55.9,30.19,ENE,58,3.0,5.0,74,0.00,,,0.00,Wunderground v.1.15,2016-12-03 14:36:00,
2016-12-03 09:41:00,64.6,55.7,30.19,ENE,78,3.0,5.0,73,0.00,,,0.00,Wunderground v.1.15,2016-12-03 14:41:00,
2016-12-03 09:47:00,64.7,55.8,30.19,East,88,3.0,6.0,73,0.00,,,0.00,Wunderground v.1.15,2016-12-03 14:47:00,
2016-12-03 09:52:00,64.8,55.9,30.19,NE,46,2.0,6.0,73,0.00,,,0.00,Wunderground v.1.15,2016-12-03 14:52:00,
2016-12-03 09:57:00,65.2,56.3,30.19,ENE,67,2.0,4.0,73,0.00,,,0.00,Wunderground v.1.15,2016-12-03 14:57:00,
2016-12-03 10:02:00,65.5,56.6,30.20,East,95,1.0,5.0,73,0.00,,,0.00,Wunderground v.1.15,2016-12-03 15:02:00,
2016-12-03 10:07:00,65.6,56.3,30.20,North,353,1.0,6.0,72,0.00,,,0.00,Wunderground v.1.15,2016-12-03 15:07:00,
2016-12-03 10:12:00,66.0,56.7,30.19,NNE,32,2.0,8.0,72,0.00,,,0.00,Wunderground v.1.15,2016-12-03 15:12:00,
2016-12-03 10:17:00,66.2,56.9,30.19,East,98,2.0,5.0,72,0.00,,,0.00,Wunderground v.1.15,2016-12-03 15:17:00,
2016-12-03 10:22:00,66.8,57.1,30.19,ENE,63,0.0,5.0,71,0.00,,,0.00,Wunderground v.1.15,2016-12-03 15:22:00,
2016-12-03 10:27:00,67.1,57.4,30.19,ESE,120,4.0,4.0,71,0.00,,,0.00,Wunderground v.1.15,2016-12-03 15:27:00,
2016-12-03 10:32:00,67.4,57.3,30.19,ENE,63,2.0,6.0,70,0.00,,,0.00,Wunderground v.1.15,2016-12-03 15:32:00,
2016-12-03 10:37:00,67.4,57.7,30.19,NE,44,1.0,5.0,71,0.00,,,0.00,Wunderground v.1.15,2016-12-03 15:37:00,
2016-12-03 10:42:00,67.6,57.5,30.19,East,79,3.0,8.0,70,0.00,,,0.00,Wunderground v.1.15,2016-12-03 15:42:00,
2016-12-03 10:47:00,67.4,57.3,30.19,NE,37,2.0,4.0,70,0.00,,,0.00,Wunderground v.1.15,2016-12-03 15:47:00,
2016-12-03 10:52:00,67.6,57.5,30.18,ENE,67,2.0,5.0,70,0.00,,,0.00,Wunderground v.1.15,2016-12-03 15:52:00,
2016-12-03 10:57:00,67.8,58.1,30.18,East,98,1.0,3.0,71,0.00,,,0.00,Wunderground v.1.15,2016-12-03 15:57:00,
2016-12-03 11:02:00,68.3,58.1,30.18,NNE,30,2.0,6.0,70,0.00,,,0.00,Wunderground v.1.15,2016-12-03 16:02:00,
2016-12-03 11:07:00,68.3,58.1,30.18,SW,218,1.0,5.0,70,0.00,,,0.00,Wunderground v.1.15,2016-12-03 16:07:00,
2016-12-03 11:12:00,68.5,58.3,30.17,SE,127,0.0,7.0,70,0.00,,,0.00,Wunderground v.1.15,2016-12-03 16:12:00,
2016-12-03 11:14:00,70.5,59.8,30.16,SSE,158,3.0,7.0,69,0.00,,,0.00,Wunderground v.1.15,2016-12-03 16:14:00,
2016-12-03 11:15:00,70.6,59.5,30.16,NE,49,2.0,7.0,68,0.00,,,0.00,Wunderground v.1.15,2016-12-03 16:15:00,
2016-12-03 11:16:00,70.6,59.5,30.16,ESE,113,1.0,7.0,68,0.00,,,0.00,Wunderground v.1.15,2016-12-03 16:16:00,
2016-12-03 11:17:00,69.3,59.1,30.17,ENE,75,4.0,4.0,70,0.00,,,0.00,Wunderground v.1.15,2016-12-03 16:17:00,
2016-12-03 11:18:00,70.6,59.5,30.15,NE,50,3.0,7.0,68,0.00,,,0.00,Wunderground v.1.15,2016-12-03 16:18:00,
2016-12-03 11:19:00,70.6,59.5,30.15,North,353,1.0,7.0,68,0.00,,,0.00,Wunderground v.1.15,2016-12-03 16:19:00,
2016-12-03 11:20:00,70.6,59.5,30.15,SE,142,3.0,3.0,68,0.00,,,0.00,Wunderground v.1.15,2016-12-03 16:20:00,
2016-12-03 11:21:00,70.7,60.0,30.15,SE,124,0.0,3.0,69,0.00,,,0.00,Wunderground v.1.15,2016-12-03 16:21:00,
2016-12-03 11:22:00,69.8,59.2,30.17,East,92,1.0,5.0,69,0.00,,,0.00,Wunderground v.1.15,2016-12-03 16:22:00,
2016-12-03 11:27:00,70.0,59.0,30.16,ESE,113,3.0,6.0,68,0.00,,,0.00,Wunderground v.1.15,2016-12-03 16:27:00,
2016-12-03 11:32:00,69.9,58.9,30.16,ENE,70,3.0,6.0,68,0.00,,,0.00,Wunderground v.1.15,2016-12-03 16:32:00,
2016-12-03 11:37:00,70.3,60.1,30.16,NE,50,2.0,2.0,70,0.00,,,0.00,Wunderground v.1.15,2016-12-03 16:37:00,
2016-12-03 11:42:00,70.6,59.5,30.15,NE,56,3.0,7.0,68,0.00,,,0.00,Wunderground v.1.15,2016-12-03 16:42:00,
2016-12-03 11:47:00,70.9,59.8,30.15,SE,127,3.0,5.0,68,0.00,,,0.00,Wunderground v.1.15,2016-12-03 16:47:00,
2016-12-03 11:48:00,72.0,60.4,30.14,NNW,347,2.0,6.0,67,0.00,,,0.00,Wunderground v.1.15,2016-12-03 16:48:00,
2016-12-03 11:49:00,72.0,60.4,30.13,ENE,64,2.0,6.0,67,0.00,,,0.00,Wunderground v.1.15,2016-12-03 16:49:00,
2016-12-03 11:50:00,72.0,60.4,30.14,NNE,16,1.0,2.0,67,0.00,,,0.00,Wunderground v.1.15,2016-12-03 16:50:00,
2016-12-03 11:51:00,72.0,60.4,30.13,ESE,115,0.0,5.0,67,0.00,,,0.00,Wunderground v.1.15,2016-12-03 16:51:00,
2016-12-03 11:52:00,71.0,59.5,30.15,ENE,72,3.0,6.0,67,0.00,,,0.00,Wunderground v.1.15,2016-12-03 16:52:00,
2016-12-03 11:53:00,72.1,60.5,30.13,ESE,118,4.0,5.0,67,0.00,,,0.00,Wunderground v.1.15,2016-12-03 16:53:00,
2016-12-03 11:54:00,72.2,60.2,30.13,ESE,116,0.0,5.0,66,0.00,,,0.00,Wunderground v.1.15,2016-12-03 16:54:00,
2016-12-03 11:55:00,72.2,60.6,30.13,SE,125,1.0,5.0,67,0.00,,,0.00,Wunderground v.1.15,2016-12-03 16:55:00,
2016-12-03 11:56:00,72.2,60.6,30.13,ENE,65,2.0,5.0,67,0.00,,,0.00,Wunderground v.1.15,2016-12-03 16:56:00,
2016-12-03 11:57:00,70.9,59.8,30.15,NNE,23,2.0,4.0,68,0.00,,,0.00,Wunderground v.1.15,2016-12-03 16:57:00,
2016-12-03 12:02:00,71.1,60.0,30.14,East,94,1.0,6.0,68,0.00,,,0.00,Wunderground v.1.15,2016-12-03 17:02:00,
2016-12-03 12:04:00,72.5,60.5,30.12,NE,39,4.0,5.0,66,0.00,,,0.00,Wunderground v.1.15,2016-12-03 17:04:00,
2016-12-03 12:05:00,72.5,60.5,30.12,NE,55,4.0,5.0,66,0.00,,,0.00,Wunderground v.1.15,2016-12-03 17:05:00,
2016-12-03 12:06:00,72.5,60.5,30.12,NW,323,3.0,5.0,66,0.00,,,0.00,Wunderground v.1.15,2016-12-03 17:06:00,
2016-12-03 12:07:00,71.7,60.6,30.14,ENE,65,1.0,2.0,68,0.00,,,0.00,Wunderground v.1.15,2016-12-03 17:07:00,
2016-12-03 12:08:00,72.6,60.6,30.12,NNE,15,1.0,5.0,66,0.00,,,0.00,Wunderground v.1.15,2016-12-03 17:08:00,
2016-12-03 12:09:00,72.6,60.6,30.12,ESE,109,0.0,5.0,66,0.00,,,0.00,Wunderground v.1.15,2016-12-03 17:09:00,
2016-12-03 12:10:00,72.7,60.7,30.12,ENE,61,1.0,5.0,66,0.00,,,0.00,Wunderground v.1.15,2016-12-03 17:10:00,
2016-12-03 12:11:00,72.8,60.8,30.12,SSE,153,2.0,5.0,66,0.00,,,0.00,Wunderground v.1.15,2016-12-03 17:11:00,
2016-12-03 12:12:00,72.0,60.4,30.14,NNE,15,4.0,6.0,67,0.00,,,0.00,Wunderground v.1.15,2016-12-03 17:12:00,
2016-12-03 12:13:00,73.0,61.0,30.12,NNE,25,2.0,5.0,66,0.00,,,0.00,Wunderground v.1.15,2016-12-03 17:13:00,
2016-12-03 12:14:00,73.1,61.1,30.12,SE,134,0.0,5.0,66,0.00,,,0.00,Wunderground v.1.15,2016-12-03 17:14:00,
2016-12-03 12:15:00,73.3,61.3,30.12,South,174,0.0,5.0,66,0.00,,,0.00,Wunderground v.1.15,2016-12-03 17:15:00,
2016-12-03 12:16:00,73.5,61.4,30.11,WSW,238,1.0,5.0,66,0.00,,,0.00,Wunderground v.1.15,2016-12-03 17:16:00,
2016-12-03 12:17:00,72.1,60.5,30.13,ESE,117,3.0,5.0,67,0.00,,,0.00,Wunderground v.1.15,2016-12-03 17:17:00,
2016-12-03 12:18:00,73.8,61.3,30.11,NNE,26,0.0,5.0,65,0.00,,,0.00,Wunderground v.1.15,2016-12-03 17:18:00,
2016-12-03 12:19:00,73.9,61.4,30.11,NNW,340,1.0,5.0,65,0.00,,,0.00,Wunderground v.1.15,2016-12-03 17:19:00,
2016-12-03 12:20:00,74.0,61.0,30.11,NNE,16,3.0,3.0,64,0.00,,,0.00,Wunderground v.1.15,2016-12-03 17:20:00,
2016-12-03 12:21:00,74.0,61.0,30.11,NE,54,2.0,3.0,64,0.00,,,0.00,Wunderground v.1.15,2016-12-03 17:21:00,
2016-12-03 12:22:00,72.4,60.8,30.13,SE,133,0.0,5.0,67,0.00,,,0.00,Wunderground v.1.15,2016-12-03 17:22:00,
2016-12-03 12:27:00,72.5,60.5,30.12,NNE,29,2.0,5.0,66,0.00,,,0.00,Wunderground v.1.15,2016-12-03 17:27:00,
2016-12-03 12:32:00,72.6,60.6,30.12,North,5,3.0,5.0,66,0.00,,,0.00,Wunderground v.1.15,2016-12-03 17:32:00,
2016-12-03 12:37:00,72.9,60.9,30.12,NE,40,2.0,5.0,66,0.00,,,0.00,Wunderground v.1.15,2016-12-03 17:37:00,
2016-12-03 12:42:00,73.8,61.3,30.11,NNE,12,1.0,5.0,65,0.00,,,0.00,Wunderground v.1.15,2016-12-03 17:42:00,
2016-12-03 12:47:00,74.1,61.1,30.11,SE,142,0.0,3.0,64,0.00,,,0.00,Wunderground v.1.15,2016-12-03 17:47:00,
2016-12-03 12:52:00,74.3,61.3,30.11,South,173,0.0,4.0,64,0.00,,,0.00,Wunderground v.1.15,2016-12-03 17:52:00,
2016-12-03 12:57:00,74.4,61.0,30.10,NNE,19,2.0,4.0,63,0.00,,,0.00,Wunderground v.1.15,2016-12-03 17:57:00,
2016-12-03 13:02:00,74.4,61.0,30.10,East,94,2.0,5.0,63,0.00,,,0.00,Wunderground v.1.15,2016-12-03 18:02:00,
2016-12-03 13:07:00,74.8,61.4,30.10,ENE,58,1.0,4.0,63,0.00,,,0.00,Wunderground v.1.15,2016-12-03 18:07:00,
2016-12-03 13:12:00,74.9,60.5,30.10,ENE,78,2.0,4.0,61,0.00,,,0.00,Wunderground v.1.15,2016-12-03 18:12:00,
2016-12-03 13:15:00,75.9,60.5,30.09,ENE,65,1.0,5.0,59,0.00,,,0.00,Wunderground v.1.15,2016-12-03 18:15:00,
2016-12-03 13:17:00,74.9,61.0,30.10,ESE,102,0.0,3.0,62,0.00,,,0.00,Wunderground v.1.15,2016-12-03 18:17:00,
2016-12-03 13:18:00,75.8,60.0,30.09,East,86,1.0,7.0,58,0.00,,,0.00,Wunderground v.1.15,2016-12-03 18:18:00,
2016-12-03 13:19:00,75.8,60.0,30.09,NE,51,1.0,7.0,58,0.00,,,0.00,Wunderground v.1.15,2016-12-03 18:19:00,
2016-12-03 13:20:00,75.7,59.9,30.09,East,89,1.0,2.0,58,0.00,,,0.00,Wunderground v.1.15,2016-12-03 18:20:00,
2016-12-03 13:22:00,75.4,60.5,30.10,NE,49,4.0,5.0,60,0.00,,,0.00,Wunderground v.1.15,2016-12-03 18:22:00,
2016-12-03 13:23:00,75.7,59.9,30.09,East,92,3.0,6.0,58,0.00,,,0.00,Wunderground v.1.15,2016-12-03 18:23:00,
2016-12-03 13:25:00,75.6,59.8,30.09,ENE,63,1.0,6.0,58,0.00,,,0.00,Wunderground v.1.15,2016-12-03 18:25:00,
2016-12-03 13:26:00,75.7,59.9,30.09,North,358,2.0,6.0,58,0.00,,,0.00,Wunderground v.1.15,2016-12-03 18:26:00,
2016-12-03 13:27:00,75.3,60.5,30.10,ENE,67,2.0,5.0,60,0.00,,,0.00,Wunderground v.1.15,2016-12-03 18:27:00,
2016-12-03 13:32:00,75.5,60.6,30.09,NE,51,2.0,5.0,60,0.00,,,0.00,Wunderground v.1.15,2016-12-03 18:32:00,
2016-12-03 13:37:00,75.8,60.4,30.09,North,5,1.0,5.0,59,0.00,,,0.00,Wunderground v.1.15,2016-12-03 18:37:00,
2016-12-03 13:42:00,75.9,60.5,30.09,NE,39,7.0,7.0,59,0.00,,,0.00,Wunderground v.1.15,2016-12-03 18:42:00,
2016-12-03 13:44:00,76.4,60.5,30.09,SSE,160,2.0,5.0,58,0.00,,,0.00,Wunderground v.1.15,2016-12-03 18:44:00,
2016-12-03 13:45:00,76.4,60.5,30.08,NNE,22,3.0,5.0,58,0.00,,,0.00,Wunderground v.1.15,2016-12-03 18:45:00,
2016-12-03 13:46:00,76.4,60.5,30.08,ENE,60,2.0,5.0,58,0.00,,,0.00,Wunderground v.1.15,2016-12-03 18:46:00,
2016-12-03 13:47:00,75.7,59.9,30.09,NE,40,2.0,4.0,58,0.00,,,0.00,Wunderground v.1.15,2016-12-03 18:47:00,
2016-12-03 13:48:00,76.4,60.5,30.08,SW,225,0.0,5.0,58,0.00,,,0.00,Wunderground v.1.15,2016-12-03 18:48:00,
2016-12-03 13:49:00,76.5,60.6,30.08,NNE,18,3.0,5.0,58,0.00,,,0.00,Wunderground v.1.15,2016-12-03 18:49:00,
2016-12-03 13:50:00,76.5,60.6,30.08,NNE,27,2.0,2.0,58,0.00,,,0.00,Wunderground v.1.15,2016-12-03 18:50:00,
2016-12-03 13:51:00,76.5,60.6,30.08,NW,320,6.0,7.0,58,0.00,,,0.00,Wunderground v.1.15,2016-12-03 18:51:00,
2016-12-03 13:52:00,75.8,60.0,30.09,North,9,3.0,6.0,58,0.00,,,0.00,Wunderground v.1.15,2016-12-03 18:52:00,
2016-12-03 13:53:00,76.4,60.0,30.08,WNW,301,1.0,8.0,57,0.00,,,0.00,Wunderground v.1.15,2016-12-03 18:53:00,
2016-12-03 13:57:00,75.9,60.1,30.09,SSE,162,1.0,5.0,58,0.00,,,0.00,Wunderground v.1.15,2016-12-03 18:57:00,
2016-12-03 14:02:00,76.1,59.8,30.09,NE,44,1.0,5.0,57,0.00,,,0.00,Wunderground v.1.15,2016-12-03 19:02:00,
2016-12-03 14:07:00,76.5,60.6,30.08,ENE,78,3.0,5.0,58,0.00,,,0.00,Wunderground v.1.15,2016-12-03 19:07:00,
2016-12-03 14:12:00,76.4,60.5,30.08,ESE,102,2.0,5.0,58,0.00,,,0.00,Wunderground v.1.15,2016-12-03 19:12:00,
2016-12-03 14:17:00,76.4,60.0,30.08,ENE,63,2.0,8.0,57,0.00,,,0.00,Wunderground v.1.15,2016-12-03 19:17:00,
2016-12-03 14:22:00,76.1,60.2,30.08,East,85,2.0,11.0,58,0.00,,,0.00,Wunderground v.1.15,2016-12-03 19:22:00,
2016-12-03 14:27:00,76.2,59.9,30.08,East,99,2.0,6.0,57,0.00,,,0.00,Wunderground v.1.15,2016-12-03 19:27:00,
2016-12-03 14:32:00,76.4,60.5,30.08,East,86,2.0,6.0,58,0.00,,,0.00,Wunderground v.1.15,2016-12-03 19:32:00,
2016-12-03 14:37:00,76.5,60.1,30.08,NE,40,1.0,6.0,57,0.00,,,0.00,Wunderground v.1.15,2016-12-03 19:37:00,
2016-12-03 14:42:00,76.4,60.0,30.07,NNE,26,2.0,6.0,57,0.00,,,0.00,Wunderground v.1.15,2016-12-03 19:42:00,
2016-12-03 14:43:00,76.7,59.8,30.07,East,96,0.0,3.0,56,0.00,,,0.00,Wunderground v.1.15,2016-12-03 19:43:00,
2016-12-03 14:44:00,76.8,59.9,30.07,NE,56,1.0,7.0,56,0.00,,,0.00,Wunderground v.1.15,2016-12-03 19:44:00,
2016-12-03 14:45:00,76.8,59.9,30.07,NE,53,2.0,7.0,56,0.00,,,0.00,Wunderground v.1.15,2016-12-03 19:45:00,
2016-12-03 14:46:00,76.9,60.0,30.07,ENE,75,5.0,7.0,56,0.00,,,0.00,Wunderground v.1.15,2016-12-03 19:46:00,
2016-12-03 14:47:00,76.6,60.2,30.07,East,91,0.0,5.0,57,0.00,,,0.00,Wunderground v.1.15,2016-12-03 19:47:00,
2016-12-03 14:48:00,76.9,59.5,30.07,NE,40,2.0,7.0,55,0.00,,,0.00,Wunderground v.1.15,2016-12-03 19:48:00,
2016-12-03 14:52:00,76.8,60.4,30.07,NNE,13,2.0,5.0,57,0.00,,,0.00,Wunderground v.1.15,2016-12-03 19:52:00,
2016-12-03 14:57:00,77.0,60.1,30.07,NNE,27,5.0,5.0,56,0.00,,,0.00,Wunderground v.1.15,2016-12-03 19:57:00,
2016-12-03 15:02:00,76.7,59.3,30.07,NNE,18,2.0,5.0,55,0.00,,,0.00,Wunderground v.1.15,2016-12-03 20:02:00,
2016-12-03 15:07:00,76.8,59.9,30.07,NE,53,1.0,3.0,56,0.00,,,0.00,Wunderground v.1.15,2016-12-03 20:07:00,
2016-12-03 15:12:00,76.9,59.5,30.07,ENE,75,1.0,7.0,55,0.00,,,0.00,Wunderground v.1.15,2016-12-03 20:12:00,
2016-12-03 15:17:00,76.9,59.5,30.07,East,92,2.0,6.0,55,0.00,,,0.00,Wunderground v.1.15,2016-12-03 20:17:00,
2016-12-03 15:22:00,76.8,59.9,30.07,NNE,18,2.0,6.0,56,0.00,,,0.00,Wunderground v.1.15,2016-12-03 20:22:00,
2016-12-03 15:23:00,76.7,61.3,30.07,NE,46,1.0,3.0,59,0.00,,,0.00,Wunderground v.1.15,2016-12-03 20:23:00,
2016-12-03 15:24:00,76.7,61.3,30.07,NE,49,1.0,3.0,59,0.00,,,0.00,Wunderground v.1.15,2016-12-03 20:24:00,
2016-12-03 15:25:00,76.8,60.9,30.07,East,98,0.0,7.0,58,0.00,,,0.00,Wunderground v.1.15,2016-12-03 20:25:00,
2016-12-03 15:26:00,76.8,60.9,30.07,East,98,0.0,7.0,58,0.00,,,0.00,Wunderground v.1.15,2016-12-03 20:26:00,
2016-12-03 15:27:00,76.9,60.5,30.07,ENE,61,2.0,4.0,57,0.00,,,0.00,Wunderground v.1.15,2016-12-03 20:27:00,
2016-12-03 15:28:00,76.8,60.9,30.07,East,94,0.0,7.0,58,0.00,,,0.00,Wunderground v.1.15,2016-12-03 20:28:00,
2016-12-03 15:29:00,76.8,60.9,30.07,East,94,0.0,7.0,58,0.00,,,0.00,Wunderground v.1.15,2016-12-03 20:29:00,
2016-12-03 15:30:00,76.8,60.9,30.07,NE,50,2.0,2.0,58,0.00,,,0.00,Wunderground v.1.15,2016-12-03 20:30:00,
2016-12-03 15:32:00,76.8,60.4,30.07,North,349,1.0,5.0,57,0.00,,,0.00,Wunderground v.1.15,2016-12-03 20:32:00,
2016-12-03 15:33:00,76.8,61.4,30.07,NE,41,0.0,2.0,59,0.00,,,0.00,Wunderground v.1.15,2016-12-03 20:33:00,
2016-12-03 15:34:00,76.8,61.4,30.07,NE,41,0.0,2.0,59,0.00,,,0.00,Wunderground v.1.15,2016-12-03 20:34:00,
2016-12-03 15:37:00,76.7,60.3,30.07,NNE,22,4.0,4.0,57,0.00,,,0.00,Wunderground v.1.15,2016-12-03 20:37:00,
2016-12-03 15:42:00,76.6,60.7,30.07,NNE,26,1.0,7.0,58,0.00,,,0.00,Wunderground v.1.15,2016-12-03 20:42:00,
2016-12-03 15:47:00,76.7,61.3,30.07,SSE,158,0.0,3.0,59,0.00,,,0.00,Wunderground v.1.15,2016-12-03 20:47:00,
2016-12-03 15:50:00,76.5,61.1,30.07,ENE,68,1.0,2.0,59,0.00,,,0.00,Wunderground v.1.15,2016-12-03 20:50:00,
2016-12-03 15:51:00,76.4,61.0,30.07,ESE,110,0.0,3.0,59,0.00,,,0.00,Wunderground v.1.15,2016-12-03 20:51:00,
2016-12-03 15:52:00,76.8,60.9,30.07,NE,54,0.0,7.0,58,0.00,,,0.00,Wunderground v.1.15,2016-12-03 20:52:00,
2016-12-03 15:53:00,76.4,61.0,30.07,ENE,75,1.0,3.0,59,0.00,,,0.00,Wunderground v.1.15,2016-12-03 20:53:00,
2016-12-03 15:54:00,76.4,61.5,30.07,NE,56,3.0,5.0,60,0.00,,,0.00,Wunderground v.1.15,2016-12-03 20:54:00,
2016-12-03 15:55:00,76.4,61.0,30.07,ENE,58,1.0,5.0,59,0.00,,,0.00,Wunderground v.1.15,2016-12-03 20:55:00,
2016-12-03 15:56:00,76.4,61.0,30.07,NE,49,2.0,5.0,59,0.00,,,0.00,Wunderground v.1.15,2016-12-03 20:56:00,
2016-12-03 15:57:00,76.8,61.4,30.07,NE,41,0.0,2.0,59,0.00,,,0.00,Wunderground v.1.15,2016-12-03 20:57:00,
2016-12-03 15:58:00,76.3,60.9,30.06,ENE,68,2.0,5.0,59,0.00,,,0.00,Wunderground v.1.15,2016-12-03 20:58:00,
2016-12-03 15:59:00,76.3,60.9,30.07,East,100,1.0,5.0,59,0.00,,,0.00,Wunderground v.1.15,2016-12-03 20:59:00,
2016-12-03 16:02:00,76.8,61.4,30.06,East,93,0.0,4.0,59,0.00,,,0.00,Wunderground v.1.15,2016-12-03 21:02:00,
2016-12-03 16:07:00,76.7,61.3,30.07,NNE,20,2.0,4.0,59,0.00,,,0.00,Wunderground v.1.15,2016-12-03 21:07:00,
2016-12-03 16:12:00,76.6,61.2,30.07,NE,54,0.0,5.0,59,0.00,,,0.00,Wunderground v.1.15,2016-12-03 21:12:00,
2016-12-03 16:17:00,76.4,61.0,30.07,North,9,3.0,4.0,59,0.00,,,0.00,Wunderground v.1.15,2016-12-03 21:17:00,
2016-12-03 16:20:00,75.8,61.8,30.07,NE,53,0.0,1.0,62,0.00,,,0.00,Wunderground v.1.15,2016-12-03 21:20:00,
2016-12-03 16:21:00,75.8,61.8,30.07,East,98,0.0,1.0,62,0.00,,,0.00,Wunderground v.1.15,2016-12-03 21:21:00,
2016-12-03 16:22:00,76.3,60.9,30.06,NNE,16,0.0,5.0,59,0.00,,,0.00,Wunderground v.1.15,2016-12-03 21:22:00,
2016-12-03 16:23:00,75.7,61.8,30.07,East,92,0.0,1.0,62,0.00,,,0.00,Wunderground v.1.15,2016-12-03 21:23:00,
2016-12-03 16:24:00,75.7,61.8,30.07,ENE,75,1.0,1.0,62,0.00,,,0.00,Wunderground v.1.15,2016-12-03 21:24:00,
2016-12-03 16:25:00,75.6,61.7,30.07,NNE,15,0.0,2.0,62,0.00,,,0.00,Wunderground v.1.15,2016-12-03 21:25:00,
2016-12-03 16:26:00,75.6,61.7,30.07,SE,129,0.0,2.0,62,0.00,,,0.00,Wunderground v.1.15,2016-12-03 21:26:00,
2016-12-03 16:27:00,76.2,61.3,30.07,East,91,1.0,3.0,60,0.00,,,0.00,Wunderground v.1.15,2016-12-03 21:27:00,
2016-12-03 16:32:00,76.1,61.7,30.07,NE,49,2.0,3.0,61,0.00,,,0.00,Wunderground v.1.15,2016-12-03 21:32:00,
2016-12-03 16:37:00,76.0,61.6,30.07,NE,43,1.0,2.0,61,0.00,,,0.00,Wunderground v.1.15,2016-12-03 21:37:00,
2016-12-03 16:42:00,75.8,61.8,30.07,NE,46,1.0,2.0,62,0.00,,,0.00,Wunderground v.1.15,2016-12-03 21:42:00,
2016-12-03 16:47:00,75.7,61.8,30.07,East,88,1.0,1.0,62,0.00,,,0.00,Wunderground v.1.15,2016-12-03 21:47:00,
2016-12-03 16:52:00,75.5,61.6,30.07,NNW,328,2.0,5.0,62,0.00,,,0.00,Wunderground v.1.15,2016-12-03 21:52:00,
2016-12-03 16:57:00,75.4,61.5,30.07,NE,49,1.0,4.0,62,0.00,,,0.00,Wunderground v.1.15,2016-12-03 21:57:00,
2016-12-03 17:02:00,75.2,61.7,30.07,ESE,110,0.0,4.0,63,0.00,,,0.00,Wunderground v.1.15,2016-12-03 22:02:00,
2016-12-03 17:07:00,75.1,61.6,30.07,ENE,67,0.0,2.0,63,0.00,,,0.00,Wunderground v.1.15,2016-12-03 22:07:00,
2016-12-03 17:12:00,74.9,61.5,30.07,East,91,1.0,4.0,63,0.00,,,0.00,Wunderground v.1.15,2016-12-03 22:12:00,
2016-12-03 17:17:00,74.6,61.6,30.07,ENE,72,0.0,1.0,64,0.00,,,0.00,Wunderground v.1.15,2016-12-03 22:17:00,
2016-12-03 17:19:00,73.3,61.7,30.07,SE,130,0.0,2.0,67,0.00,,,0.00,Wunderground v.1.15,2016-12-03 22:19:00,
2016-12-03 17:20:00,73.3,61.7,30.07,SE,129,0.0,0.0,67,0.00,,,0.00,Wunderground v.1.15,2016-12-03 22:20:00,
2016-12-03 17:22:00,74.4,61.9,30.07,East,96,0.0,2.0,65,0.00,,,0.00,Wunderground v.1.15,2016-12-03 22:22:00,
2016-12-03 17:23:00,73.2,61.6,30.08,East,96,0.0,1.0,67,0.00,,,0.00,Wunderground v.1.15,2016-12-03 22:23:00,
2016-12-03 17:24:00,73.1,61.5,30.08,East,99,0.0,1.0,67,0.00,,,0.00,Wunderground v.1.15,2016-12-03 22:24:00,
2016-12-03 17:25:00,73.1,61.9,30.08,East,89,0.0,1.0,68,0.00,,,0.00,Wunderground v.1.15,2016-12-03 22:25:00,
2016-12-03 17:26:00,73.0,61.8,30.08,North,357,0.0,1.0,68,0.00,,,0.00,Wunderground v.1.15,2016-12-03 22:26:00,
2016-12-03 17:28:00,74.1,62.0,30.07,East,91,0.0,1.0,66,0.00,,,0.00,Wunderground v.1.15,2016-12-03 22:28:00,
2016-12-03 17:33:00,73.8,61.7,30.07,ENE,61,0.0,3.0,66,0.00,,,0.00,Wunderground v.1.15,2016-12-03 22:33:00,
2016-12-03 17:37:00,73.6,62.0,30.07,ENE,68,0.0,2.0,67,0.00,,,0.00,Wunderground v.1.15,2016-12-03 22:37:00,
2016-12-03 17:43:00,73.4,61.8,30.07,ENE,68,0.0,2.0,67,0.00,,,0.00,Wunderground v.1.15,2016-12-03 22:43:00,
2016-12-03 17:48:00,73.1,61.5,30.08,East,98,0.0,1.0,67,0.00,,,0.00,Wunderground v.1.15,2016-12-03 22:48:00,
2016-12-03 17:53:00,72.9,61.7,30.08,East,84,0.0,1.0,68,0.00,,,0.00,Wunderground v.1.15,2016-12-03 22:53:00,
2016-12-03 17:58:00,72.7,61.5,30.08,East,88,1.0,1.0,68,0.00,,,0.00,Wunderground v.1.15,2016-12-03 22:58:00,
2016-12-03 18:03:00,72.5,61.7,30.08,East,88,0.0,1.0,69,0.00,,,0.00,Wunderground v.1.15,2016-12-03 23:03:00,
2016-12-03 18:08:00,72.4,62.1,30.08,East,88,0.0,0.0,70,0.00,,,0.00,Wunderground v.1.15,2016-12-03 23:08:00,
2016-12-03 18:13:00,72.2,61.9,30.08,East,88,0.0,1.0,70,0.00,,,0.00,Wunderground v.1.15,2016-12-03 23:13:00,
2016-12-03 18:18:00,72.1,61.8,30.08,ENE,63,0.0,2.0,70,0.00,,,0.00,Wunderground v.1.15,2016-12-03 23:18:00,
2016-12-03 18:23:00,72.1,62.2,30.08,NE,39,0.0,2.0,71,0.00,,,0.00,Wunderground v.1.15,2016-12-03 23:23:00,
2016-12-03 18:27:00,72.0,62.1,30.09,ENE,66,0.0,3.0,71,0.00,,,0.00,Wunderground v.1.15,2016-12-03 23:27:00,
2016-12-03 18:28:00,72.0,62.1,30.08,NE,53,0.0,2.0,71,0.00,,,0.00,Wunderground v.1.15,2016-12-03 23:28:00,
2016-12-03 18:29:00,72.0,62.1,30.09,ENE,63,2.0,3.0,71,0.00,,,0.00,Wunderground v.1.15,2016-12-03 23:29:00,
2016-12-03 18:30:00,72.0,62.1,30.09,SE,139,0.0,0.0,71,0.00,,,0.00,Wunderground v.1.15,2016-12-03 23:30:00,
2016-12-03 18:31:00,72.0,62.1,30.09,South,176,1.0,1.0,71,0.00,,,0.00,Wunderground v.1.15,2016-12-03 23:31:00,
2016-12-03 18:32:00,72.0,62.1,30.09,East,96,1.0,2.0,71,0.00,,,0.00,Wunderground v.1.15,2016-12-03 23:32:00,
2016-12-03 18:33:00,72.1,62.2,30.08,East,89,0.0,2.0,71,0.00,,,0.00,Wunderground v.1.15,2016-12-03 23:33:00,
2016-12-03 18:37:00,72.1,62.6,30.09,East,89,0.0,6.0,72,0.00,,,0.00,Wunderground v.1.15,2016-12-03 23:37:00,
2016-12-03 18:38:00,72.1,62.2,30.08,East,84,0.0,2.0,71,0.00,,,0.00,Wunderground v.1.15,2016-12-03 23:38:00,
2016-12-03 18:39:00,72.0,62.5,30.09,ENE,73,0.0,6.0,72,0.00,,,0.00,Wunderground v.1.15,2016-12-03 23:39:00,
2016-12-03 18:40:00,72.0,62.5,30.09,ENE,70,1.0,2.0,72,0.00,,,0.00,Wunderground v.1.15,2016-12-03 23:40:00,
2016-12-03 18:41:00,72.0,62.5,30.09,ENE,65,0.0,2.0,72,0.00,,,0.00,Wunderground v.1.15,2016-12-03 23:41:00,
2016-12-03 18:42:00,72.0,62.5,30.09,East,82,0.0,2.0,72,0.00,,,0.00,Wunderground v.1.15,2016-12-03 23:42:00,
2016-12-03 18:43:00,72.0,62.1,30.09,ESE,112,0.0,2.0,71,0.00,,,0.00,Wunderground v.1.15,2016-12-03 23:43:00,
2016-12-03 18:48:00,72.0,62.1,30.09,East,82,0.0,2.0,71,0.00,,,0.00,Wunderground v.1.15,2016-12-03 23:48:00,
2016-12-03 18:53:00,72.0,62.1,30.09,NE,42,2.0,3.0,71,0.00,,,0.00,Wunderground v.1.15,2016-12-03 23:53:00,
2016-12-03 18:58:00,72.0,62.5,30.09,SE,131,1.0,6.0,72,0.00,,,0.00,Wunderground v.1.15,2016-12-03 23:58:00,
2016-12-03 19:03:00,72.0,62.5,30.09,ENE,73,0.0,6.0,72,0.00,,,0.00,Wunderground v.1.15,2016-12-04 00:03:00,
2016-12-03 19:08:00,72.0,62.5,30.10,SSW,210,0.0,2.0,72,0.00,,,0.00,Wunderground v.1.15,2016-12-04 00:08:00,
2016-12-03 19:13:00,71.9,62.8,30.10,East,86,2.0,3.0,73,0.00,,,0.00,Wunderground v.1.15,2016-12-04 00:13:00,
2016-12-03 19:18:00,71.8,62.7,30.10,ENE,70,5.0,5.0,73,0.00,,,0.00,Wunderground v.1.15,2016-12-04 00:18:00,
2016-12-03 19:22:00,71.0,62.7,30.11,ENE,78,1.0,3.0,75,0.00,,,0.00,Wunderground v.1.15,2016-12-04 00:22:00,
2016-12-03 19:23:00,71.7,62.6,30.10,East,90,0.0,5.0,73,0.00,,,0.00,Wunderground v.1.15,2016-12-04 00:23:00,
2016-12-03 19:24:00,71.0,62.7,30.11,NE,42,0.0,3.0,75,0.00,,,0.00,Wunderground v.1.15,2016-12-04 00:24:00,
2016-12-03 19:25:00,70.9,62.6,30.11,ENE,68,0.0,3.0,75,0.00,,,0.00,Wunderground v.1.15,2016-12-04 00:25:00,
2016-12-03 19:26:00,70.9,62.6,30.11,SW,229,0.0,3.0,75,0.00,,,0.00,Wunderground v.1.15,2016-12-04 00:26:00,
2016-12-03 19:28:00,71.5,62.8,30.10,East,91,0.0,2.0,74,0.00,,,0.00,Wunderground v.1.15,2016-12-04 00:28:00,
2016-12-03 19:33:00,71.4,62.7,30.11,SE,142,0.0,4.0,74,0.00,,,0.00,Wunderground v.1.15,2016-12-04 00:33:00,
2016-12-03 19:38:00,71.3,62.6,30.11,ENE,65,1.0,3.0,74,0.00,,,0.00,Wunderground v.1.15,2016-12-04 00:38:00,
2016-12-03 19:43:00,71.1,62.8,30.11,East,96,1.0,5.0,75,0.00,,,0.00,Wunderground v.1.15,2016-12-04 00:43:00,
2016-12-03 19:53:00,70.8,62.5,30.11,NE,43,1.0,3.0,75,0.00,,,0.00,Wunderground v.1.15,2016-12-04 00:53:00,
2016-12-03 19:58:00,70.7,62.8,30.11,North,350,0.0,2.0,76,0.00,,,0.00,Wunderground v.1.15,2016-12-04 00:58:00,
2016-12-03 20:03:00,70.6,62.7,30.11,East,84,1.0,4.0,76,0.00,,,0.00,Wunderground v.1.15,2016-12-04 01:03:00,
2016-12-03 20:08:00,70.5,62.6,30.11,NE,53,0.0,6.0,76,0.00,,,0.00,Wunderground v.1.15,2016-12-04 01:08:00,
2016-12-03 20:13:00,70.3,62.4,30.11,ESE,114,1.0,6.0,76,0.00,,,0.00,Wunderground v.1.15,2016-12-04 01:13:00,
2016-12-03 20:18:00,70.2,62.6,30.11,ENE,70,0.0,5.0,77,0.00,,,0.00,Wunderground v.1.15,2016-12-04 01:18:00,
2016-12-03 20:23:00,70.1,62.6,30.12,ESE,123,0.0,6.0,77,0.00,,,0.00,Wunderground v.1.15,2016-12-04 01:23:00,
2016-12-03 20:28:00,70.0,62.8,30.12,SE,134,0.0,2.0,78,0.00,,,0.00,Wunderground v.1.15,2016-12-04 01:28:00,
2016-12-03 20:33:00,69.8,62.6,30.12,SE,142,0.0,4.0,78,0.00,,,0.00,Wunderground v.1.15,2016-12-04 01:33:00,
2016-12-03 20:38:00,69.7,62.9,30.12,NE,43,0.0,1.0,79,0.00,,,0.00,Wunderground v.1.15,2016-12-04 01:38:00,
2016-12-03 20:43:00,69.6,62.8,30.12,SE,125,0.0,4.0,79,0.00,,,0.00,Wunderground v.1.15,2016-12-04 01:43:00,
2016-12-03 20:48:00,69.4,62.6,30.12,ENE,77,0.0,2.0,79,0.00,,,0.00,Wunderground v.1.15,2016-12-04 01:48:00,
2016-12-03 20:53:00,69.3,62.9,30.12,SE,142,0.0,3.0,80,0.00,,,0.00,Wunderground v.1.15,2016-12-04 01:53:00,
2016-12-03 20:58:00,69.2,62.8,30.12,South,184,0.0,5.0,80,0.00,,,0.00,Wunderground v.1.15,2016-12-04 01:58:00,
2016-12-03 21:03:00,69.2,62.8,30.12,SSE,163,0.0,8.0,80,0.00,,,0.00,Wunderground v.1.15,2016-12-04 02:03:00,
2016-12-03 21:08:00,69.1,62.7,30.12,NNE,20,0.0,6.0,80,0.00,,,0.00,Wunderground v.1.15,2016-12-04 02:08:00,
2016-12-03 21:13:00,69.0,62.6,30.12,NE,53,2.0,6.0,80,0.00,,,0.00,Wunderground v.1.15,2016-12-04 02:13:00,
2016-12-03 21:18:00,68.9,62.5,30.13,ENE,78,0.0,6.0,80,0.00,,,0.00,Wunderground v.1.15,2016-12-04 02:18:00,
2016-12-03 21:23:00,68.8,62.4,30.13,ESE,108,0.0,6.0,80,0.00,,,0.00,Wunderground v.1.15,2016-12-04 02:23:00,
2016-12-03 21:28:00,68.7,62.3,30.13,WSW,245,0.0,5.0,80,0.00,,,0.00,Wunderground v.1.15,2016-12-04 02:28:00,
2016-12-03 21:33:00,68.6,62.5,30.13,ESE,115,0.0,5.0,81,0.00,,,0.00,Wunderground v.1.15,2016-12-04 02:33:00,
2016-12-03 21:38:00,68.5,62.4,30.13,ENE,68,5.0,5.0,81,0.00,,,0.00,Wunderground v.1.15,2016-12-04 02:38:00,
2016-12-03 21:43:00,68.4,62.3,30.13,SE,131,0.0,5.0,81,0.00,,,0.00,Wunderground v.1.15,2016-12-04 02:43:00,
2016-12-03 21:48:00,68.3,62.2,30.13,SW,215,0.0,4.0,81,0.00,,,0.00,Wunderground v.1.15,2016-12-04 02:48:00,
2016-12-03 21:53:00,68.1,62.0,30.13,ENE,78,0.0,6.0,81,0.00,,,0.00,Wunderground v.1.15,2016-12-04 02:53:00,
2016-12-03 21:58:00,68.1,62.0,30.13,SE,129,4.0,6.0,81,0.00,,,0.00,Wunderground v.1.15,2016-12-04 02:58:00,
2016-12-03 22:03:00,68.1,62.0,30.13,East,81,1.0,6.0,81,0.00,,,0.00,Wunderground v.1.15,2016-12-04 03:03:00,